Archiv-/Tagesdaten

--Timestamp---	Temp	Chill	HIndex	Humid	Dewpt	 Wind 	HiWind	WindDir	Rain 	Barom	Solar	 ET  	 UV 
--------------	----	-----	------	-----	-----	------	------	-------	-----	-----	-----	-----	----
20090825 00:00	16.8	16.8	16.8	86	14.5	0	0	-100000	0.0	1009.5	0	0.025	0.0
20090825 00:05	16.8	16.8	16.8	86	14.4	0	0	-100000	0.0	1009.2	0	0.000	0.0
20090825 00:10	16.7	16.7	16.7	87	14.5	0	0	-100000	0.0	1009.2	0	0.000	0.0
20090825 00:15	16.7	16.7	16.7	87	14.5	0	0	-100000	0.0	1009.1	0	0.000	0.0
20090825 00:20	16.7	16.7	16.7	87	14.5	0	0	-100000	0.0	1009.0	0	0.000	0.0
20090825 00:25	16.7	16.7	16.7	87	14.5	0	0	-100000	0.0	1008.9	0	0.000	0.0
20090825 00:30	16.7	16.7	16.7	87	14.5	0	0	-100000	0.0	1008.9	0	0.000	0.0
20090825 00:35	16.6	16.6	16.6	87	14.4	0	0	-100000	0.0	1008.9	0	0.000	0.0
20090825 00:40	16.6	16.6	16.6	87	14.4	2	5	158	0.0	1008.9	0	0.000	0.0
20090825 00:45	16.6	16.6	16.6	87	14.4	3	8	158	0.0	1008.8	0	0.000	0.0
20090825 00:50	16.6	16.6	16.6	87	14.4	2	6	135	0.0	1008.8	0	0.000	0.0
20090825 00:55	16.6	16.6	16.6	87	14.4	0	6	135	0.0	1008.7	0	0.000	0.0
20090825 01:00	16.6	16.6	16.6	87	14.4	0	5	135	0.0	1008.8	0	0.000	0.0
20090825 01:05	16.6	16.6	16.6	87	14.4	2	5	158	0.0	1008.4	0	0.000	0.0
20090825 01:10	16.6	16.6	16.6	88	14.6	2	8	158	0.0	1008.3	0	0.000	0.0
20090825 01:15	16.7	16.7	16.7	88	14.7	0	3	158	0.0	1008.3	0	0.000	0.0
20090825 01:20	16.7	16.7	16.7	88	14.7	2	5	158	0.0	1008.2	0	0.000	0.0
20090825 01:25	16.7	16.7	16.7	88	14.7	0	3	158	0.0	1008.3	0	0.000	0.0
20090825 01:30	16.7	16.7	16.7	87	14.5	0	5	158	0.0	1008.3	0	0.000	0.0
20090825 01:35	16.7	16.7	16.7	87	14.5	0	2	158	0.0	1008.3	0	0.000	0.0
20090825 01:40	16.7	16.7	16.7	87	14.5	0	2	158	0.0	1008.2	0	0.000	0.0
20090825 01:45	16.6	16.6	16.6	87	14.4	0	0	-100000	0.0	1008.2	0	0.000	0.0
20090825 01:50	16.4	16.4	16.4	86	14.0	0	0	-100000	0.0	1008.3	0	0.000	0.0
20090825 01:55	16.2	16.2	16.2	86	13.8	0	0	-100000	0.0	1008.4	0	0.000	0.0
20090825 02:00	15.9	15.9	15.9	86	13.6	0	0	-100000	0.0	1008.5	0	0.000	0.0
20090825 02:05	15.7	15.7	15.7	87	13.6	0	0	-100000	0.0	1008.3	0	0.000	0.0
20090825 02:10	15.6	15.6	15.6	87	13.4	0	0	-100000	0.0	1008.4	0	0.000	0.0
20090825 02:15	15.4	15.4	15.4	88	13.5	0	2	158	0.0	1008.4	0	0.000	0.0
20090825 02:20	15.3	15.3	15.3	88	13.4	0	2	158	0.0	1008.5	0	0.000	0.0
20090825 02:25	15.2	15.2	15.2	88	13.2	0	0	-100000	0.0	1008.5	0	0.000	0.0
20090825 02:30	15.1	15.1	15.1	88	13.1	0	0	-100000	0.0	1008.6	0	0.000	0.0
20090825 02:35	15.1	15.1	15.1	89	13.3	0	0	-100000	0.0	1008.6	0	0.000	0.0
20090825 02:40	15.0	15.0	15.0	89	13.2	0	0	-100000	0.0	1008.7	0	0.000	0.0
20090825 02:45	15.0	15.0	15.0	89	13.2	0	0	-100000	0.0	1008.6	0	0.000	0.0
20090825 02:50	15.0	15.0	15.0	90	13.4	0	0	-100000	0.0	1008.6	0	0.000	0.0
20090825 02:55	15.0	15.0	15.0	90	13.4	0	0	-100000	0.0	1008.6	0	0.000	0.0
20090825 03:00	15.0	15.0	15.0	90	13.4	0	0	-100000	0.0	1008.6	0	0.000	0.0
20090825 03:05	15.0	15.0	15.0	90	13.4	0	0	-100000	0.0	1008.7	0	0.000	0.0
20090825 03:10	14.9	14.9	14.9	90	13.3	0	0	-100000	0.0	1008.7	0	0.000	0.0
20090825 03:15	14.9	14.9	14.9	91	13.5	0	0	-100000	0.0	1008.7	0	0.000	0.0
20090825 03:20	15.0	15.0	15.0	91	13.5	0	0	-100000	0.0	1008.7	0	0.000	0.0
20090825 03:25	15.0	15.0	15.0	90	13.4	0	0	-100000	0.0	1008.7	0	0.000	0.0
20090825 03:30	14.9	14.9	14.9	90	13.3	0	0	-100000	0.0	1008.8	0	0.000	0.0
20090825 03:35	14.9	14.9	14.9	91	13.5	0	2	158	0.0	1008.8	0	0.000	0.0
20090825 03:40	14.9	14.9	14.9	91	13.4	0	2	158	0.0	1008.8	0	0.000	0.0
20090825 03:45	14.8	14.8	14.8	91	13.4	0	5	158	0.0	1008.8	0	0.000	0.0
20090825 03:50	14.8	14.8	14.8	91	13.4	0	3	158	0.0	1009.0	0	0.000	0.0
20090825 03:55	14.8	14.8	14.8	91	13.4	0	0	-100000	0.0	1008.9	0	0.000	0.0
20090825 04:00	14.8	14.8	14.8	91	13.3	2	5	158	0.0	1008.9	0	0.000	0.0
20090825 04:05	14.9	14.9	14.9	91	13.5	0	5	158	0.0	1008.9	0	0.000	0.0
20090825 04:10	15.0	15.0	15.0	91	13.5	2	6	158	0.0	1008.9	0	0.000	0.0
20090825 04:15	15.0	15.0	15.0	92	13.7	3	8	158	0.0	1008.8	0	0.000	0.0
20090825 04:20	15.1	15.1	15.1	92	13.8	2	6	158	0.0	1008.8	0	0.000	0.0
20090825 04:25	15.2	15.2	15.2	92	13.9	2	5	158	0.0	1008.7	0	0.000	0.0
20090825 04:30	15.2	15.2	15.2	92	13.9	2	8	158	0.0	1008.7	0	0.000	0.0
20090825 04:35	15.2	15.2	15.2	92	13.9	2	8	158	0.0	1008.7	0	0.000	0.0
20090825 04:40	15.4	15.4	15.4	92	14.1	3	10	135	0.0	1008.7	0	0.000	0.0
20090825 04:45	15.5	15.5	15.5	92	14.2	3	8	135	0.0	1008.6	0	0.000	0.0
20090825 04:50	15.5	15.5	15.5	91	14.0	3	6	135	0.0	1008.6	0	0.000	0.0
20090825 04:55	15.6	15.6	15.6	91	14.1	2	6	158	0.0	1008.5	0	0.000	0.0
20090825 05:00	15.6	15.6	15.6	91	14.1	2	6	158	0.0	1008.5	0	0.000	0.0
20090825 05:05	15.6	15.6	15.6	91	14.1	3	8	158	0.0	1008.7	0	0.000	0.0
20090825 05:10	15.6	15.6	15.6	91	14.1	0	5	158	0.0	1008.7	0	0.000	0.0
20090825 05:15	15.5	15.5	15.5	91	14.0	0	2	158	0.0	1008.7	0	0.000	0.0
20090825 05:20	15.4	15.4	15.4	91	13.9	0	6	158	0.0	1008.7	0	0.000	0.0
20090825 05:25	15.3	15.3	15.3	91	13.9	0	5	158	0.0	1008.7	0	0.000	0.0
20090825 05:30	15.2	15.2	15.2	90	13.6	2	5	158	0.0	1008.7	0	0.000	0.0
20090825 05:35	15.0	15.0	15.0	90	13.4	0	5	158	0.0	1008.8	0	0.000	0.0
20090825 05:40	15.0	15.0	15.0	90	13.4	0	0	-100000	0.0	1008.9	0	0.000	0.0
20090825 05:45	15.0	15.0	15.0	90	13.4	0	0	-100000	0.0	1009.0	0	0.000	0.0
20090825 05:50	14.8	14.8	14.8	90	13.2	0	2	158	0.0	1009.0	0	0.000	0.0
20090825 05:55	14.7	14.7	14.7	90	13.0	0	5	158	0.0	1009.2	0	0.000	0.0
20090825 06:00	14.6	14.6	14.6	91	13.1	2	6	158	0.0	1009.1	0	0.000	0.0
20090825 06:05	14.6	14.6	14.6	91	13.1	0	2	180	0.0	1009.2	0	0.000	0.0
20090825 06:10	14.5	14.5	14.5	91	13.0	2	6	180	0.0	1009.2	0	0.000	0.0
20090825 06:15	14.5	14.5	14.5	91	13.0	3	6	180	0.0	1009.3	0	0.000	0.0
20090825 06:20	14.4	14.4	14.4	91	13.0	3	8	180	0.0	1009.4	0	0.000	0.0
20090825 06:25	14.4	14.4	14.4	91	13.0	3	5	180	0.0	1009.3	3	0.000	0.0
20090825 06:30	14.4	14.4	14.4	91	13.0	3	6	180	0.0	1009.3	6	0.000	0.0
20090825 06:35	14.4	14.4	14.4	91	13.0	2	5	180	0.0	1009.4	8	0.000	0.0
20090825 06:40	14.5	14.5	14.5	92	13.2	5	8	180	0.0	1009.6	11	0.000	0.0
20090825 06:45	14.6	14.6	14.6	92	13.3	3	6	202	0.0	1009.7	13	0.000	0.0
20090825 06:50	14.6	14.6	14.6	92	13.3	5	8	202	0.0	1009.7	16	0.000	0.0
20090825 06:55	14.7	14.7	14.7	92	13.4	5	10	202	0.0	1009.8	18	0.000	0.0
20090825 07:00	14.7	14.7	14.7	91	13.2	5	10	202	0.0	1010.0	20	0.000	0.0
20090825 07:05	14.7	14.7	14.7	91	13.3	8	14	225	0.0	1010.6	23	0.000	0.0
20090825 07:10	14.7	14.7	14.7	91	13.3	3	8	225	0.0	1010.4	25	0.000	0.0
20090825 07:15	14.9	14.9	14.9	92	13.6	3	8	225	0.0	1010.6	27	0.000	0.0
20090825 07:20	15.0	15.0	15.0	92	13.7	2	6	248	0.0	1010.5	29	0.000	0.0
20090825 07:25	15.0	15.0	15.0	91	13.5	3	5	248	0.0	1010.6	30	0.000	0.0
20090825 07:30	15.1	15.1	15.1	91	13.7	2	5	248	0.0	1010.7	32	0.000	0.0
20090825 07:35	15.3	15.3	15.3	91	13.8	5	8	248	0.0	1010.7	34	0.000	0.0
20090825 07:40	15.4	15.4	15.4	91	13.9	5	10	202	0.0	1010.7	38	0.000	0.0
20090825 07:45	15.6	15.6	15.6	90	13.9	2	6	202	0.0	1010.6	124	0.000	0.0
20090825 07:50	15.9	15.9	15.9	90	14.2	3	6	202	0.0	1010.6	148	0.000	0.0
20090825 07:55	16.3	16.3	16.3	88	14.3	3	8	202	0.0	1010.7	157	0.000	0.0
20090825 08:00	16.7	16.7	16.7	87	14.5	5	11	202	0.0	1010.8	168	0.051	0.2
20090825 08:05	17.1	17.1	17.1	86	14.7	5	10	202	0.0	1010.9	180	0.000	0.5
20090825 08:10	17.4	17.4	17.4	84	14.7	6	11	202	0.0	1011.0	194	0.000	0.5
20090825 08:15	17.7	17.7	17.7	84	15.0	5	11	202	0.0	1010.9	207	0.000	0.6
20090825 08:20	17.9	17.9	17.9	83	15.0	5	11	225	0.0	1011.0	222	0.000	0.7
20090825 08:25	18.2	18.2	18.2	82	15.0	6	10	202	0.0	1011.1	234	0.000	0.8
20090825 08:30	18.4	18.4	18.4	82	15.3	5	8	202	0.0	1011.1	247	0.000	0.8
20090825 08:35	18.8	18.8	18.8	81	15.4	2	8	202	0.0	1010.9	261	0.000	0.9
20090825 08:40	19.1	19.1	19.1	81	15.7	2	8	202	0.0	1011.0	278	0.000	1.0
20090825 08:45	19.4	19.4	19.4	78	15.4	5	10	225	0.0	1011.0	301	0.000	1.1
20090825 08:50	19.7	19.7	19.7	77	15.5	6	11	270	0.0	1011.0	320	0.000	1.2
20090825 08:55	19.9	19.9	19.9	77	15.8	6	14	248	0.0	1010.9	335	0.000	1.3
20090825 09:00	20.2	20.2	20.2	77	16.0	6	11	270	0.0	1010.9	350	0.152	1.3
20090825 09:05	20.4	20.4	20.4	76	16.1	8	16	270	0.0	1011.1	366	0.000	1.4
20090825 09:10	20.6	20.6	20.6	74	15.8	10	16	248	0.0	1011.0	350	0.000	1.5
20090825 09:15	20.8	20.8	20.8	73	15.8	8	13	248	0.0	1011.1	64	0.000	1.3
20090825 09:20	21.0	21.0	21.0	73	16.0	5	10	270	0.0	1011.0	65	0.000	1.4
20090825 09:25	21.2	21.2	21.2	72	15.9	8	11	270	0.0	1011.0	65	0.000	1.4
20090825 09:30	21.3	21.3	21.3	70	15.6	10	19	292	0.0	1011.0	65	0.000	1.5
20090825 09:35	21.6	21.6	21.6	70	15.8	8	14	270	0.0	1011.1	68	0.000	1.6
20090825 09:40	21.8	21.8	21.8	69	15.8	10	19	292	0.0	1011.0	67	0.000	1.6
20090825 09:45	21.9	21.9	21.9	68	15.8	10	18	270	0.0	1011.0	69	0.000	1.7
20090825 09:50	22.1	22.1	22.1	68	15.9	10	21	270	0.0	1010.9	69	0.000	1.8
20090825 09:55	22.3	22.3	22.3	66	15.6	14	24	292	0.0	1010.9	68	0.000	1.8
20090825 10:00	22.4	22.4	22.4	68	16.2	10	18	292	0.0	1011.0	71	0.102	1.9
20090825 10:05	22.6	22.6	22.6	67	16.2	14	23	292	0.0	1011.2	74	0.000	2.0
20090825 10:10	22.7	22.7	22.7	66	16.0	11	23	292	0.0	1011.3	76	0.000	2.1
20090825 10:15	22.8	22.8	22.8	65	15.9	14	24	270	0.0	1011.3	78	0.000	2.2
20090825 10:20	22.9	22.9	22.9	65	16.0	14	24	292	0.0	1011.3	81	0.000	2.2
20090825 10:25	23.0	23.0	23.0	65	16.1	13	19	270	0.0	1011.3	83	0.000	2.3
20090825 10:30	23.1	23.1	23.1	65	16.2	14	26	270	0.0	1011.3	84	0.000	2.4
20090825 10:35	23.2	23.2	23.2	63	15.7	13	23	270	0.0	1011.4	84	0.000	2.4
20090825 10:40	23.3	23.3	23.3	64	16.1	11	21	292	0.0	1011.5	89	0.000	2.5
20090825 10:45	23.5	23.5	23.5	62	15.8	14	24	292	0.0	1011.6	267	0.000	2.6
20090825 10:50	23.7	23.7	23.7	62	15.9	11	23	270	0.0	1011.4	603	0.000	3.5
20090825 10:55	23.7	23.7	23.7	62	16.0	14	21	270	0.0	1011.4	595	0.000	4.0
20090825 11:00	23.8	23.8	23.8	62	16.1	14	21	292	0.0	1011.4	599	0.203	4.1
20090825 11:05	23.9	23.9	25.2	62	16.2	10	19	292	0.0	1011.6	619	0.000	4.2
20090825 11:10	24.2	24.2	25.4	61	16.2	11	21	292	0.0	1011.5	624	0.000	4.4
20090825 11:15	24.3	24.3	25.5	62	16.6	10	19	292	0.0	1011.5	649	0.000	4.6
20090825 11:20	24.6	24.6	25.7	61	16.6	8	14	292	0.0	1011.4	669	0.000	4.8
20090825 11:25	24.7	24.7	25.7	60	16.4	10	18	292	0.0	1011.4	677	0.000	4.9
20090825 11:30	24.8	24.8	25.8	61	16.7	10	19	270	0.0	1011.4	665	0.000	4.9
20090825 11:35	24.9	24.9	25.9	60	16.6	10	19	292	0.0	1011.4	677	0.000	5.0
20090825 11:40	25.1	25.1	26.0	59	16.5	8	18	292	0.0	1011.4	674	0.000	5.1
20090825 11:45	25.2	25.2	26.2	60	16.9	6	16	292	0.0	1011.4	688	0.000	5.2
20090825 11:50	25.3	25.3	26.2	59	16.7	11	19	270	0.0	1011.4	682	0.000	5.3
20090825 11:55	25.4	25.4	26.3	59	16.8	6	10	292	0.0	1011.4	679	0.000	5.3
20090825 12:00	25.4	25.4	26.3	57	16.2	10	18	315	0.0	1011.4	677	0.457	5.4
20090825 12:05	25.4	25.4	26.3	59	16.8	6	18	292	0.0	1011.4	692	0.000	5.5
20090825 12:10	25.6	25.6	26.5	59	16.9	6	18	270	0.0	1011.4	714	0.000	5.6
20090825 12:15	25.8	25.8	26.6	57	16.6	6	16	315	0.0	1011.4	705	0.000	5.5
20090825 12:20	25.8	25.8	26.6	58	16.9	10	16	292	0.0	1011.4	709	0.000	5.7
20090825 12:25	25.9	25.9	26.7	56	16.5	5	16	292	0.0	1011.4	734	0.000	5.8
20090825 12:30	26.1	26.1	26.8	56	16.6	5	18	270	0.0	1011.3	729	0.000	5.9
20090825 12:35	26.3	26.3	27.1	57	17.1	5	11	292	0.0	1011.3	729	0.000	5.9
20090825 12:40	26.3	26.3	27.1	56	16.8	5	11	270	0.0	1011.3	571	0.000	5.3
20090825 12:45	26.3	26.3	27.1	57	17.1	10	18	270	0.0	1011.3	747	0.000	6.1
20090825 12:50	26.5	26.5	27.3	56	17.0	10	19	270	0.0	1011.1	774	0.000	6.3
20090825 12:55	26.6	26.6	27.3	55	16.8	8	18	315	0.0	1011.2	780	0.000	6.4
20090825 13:00	26.6	26.6	27.3	55	16.8	8	16	292	0.0	1011.2	757	0.508	6.2
20090825 13:05	26.5	26.5	27.2	55	16.7	6	11	270	0.0	1011.3	760	0.000	6.2
20090825 13:10	26.6	26.6	27.3	55	16.8	5	11	315	0.0	1011.2	695	0.000	5.9
20090825 13:15	26.5	26.5	27.2	55	16.7	5	18	292	0.0	1011.2	576	0.000	5.1
20090825 13:20	26.3	26.3	27.1	55	16.6	6	16	292	0.0	1011.2	593	0.000	5.2
20090825 13:25	26.3	26.3	27.1	58	17.3	5	8	270	0.0	1011.2	594	0.000	5.4
20090825 13:30	26.4	26.4	27.3	57	17.2	3	8	22	0.0	1011.1	725	0.000	6.1
20090825 13:35	26.7	26.7	27.4	55	16.9	2	8	22	0.0	1011.1	846	0.000	6.6
20090825 13:40	26.9	26.9	27.6	54	16.8	5	16	22	0.0	1011.1	714	0.000	6.1
20090825 13:45	26.7	26.7	27.3	54	16.6	6	16	22	0.0	1011.0	618	0.000	5.5
20090825 13:50	26.6	26.6	27.3	54	16.5	3	8	270	0.0	1011.1	657	0.000	5.6
20090825 13:55	26.7	26.7	27.3	53	16.3	2	8	0	0.0	1010.9	734	0.000	6.0
20090825 14:00	26.9	26.9	27.6	54	16.8	3	11	292	0.0	1011.0	702	0.457	5.8
20090825 14:05	26.9	26.9	27.6	54	16.8	3	6	22	0.0	1011.0	669	0.000	5.6
20090825 14:10	26.6	26.6	27.2	53	16.2	6	11	22	0.0	1011.1	626	0.000	5.3
20090825 14:15	26.2	26.2	26.9	53	15.9	5	11	45	0.0	1011.0	709	0.000	5.6
20090825 14:20	26.3	26.3	27.0	53	16.0	3	10	45	0.0	1011.0	688	0.000	5.6
20090825 14:25	26.4	26.4	27.0	53	16.0	2	5	22	0.0	1010.8	640	0.000	5.4
20090825 14:30	26.6	26.6	27.3	56	17.0	2	6	22	0.0	1010.8	711	0.000	5.6
20090825 14:35	26.7	26.7	27.4	55	16.9	2	8	22	0.0	1010.8	699	0.000	5.4
20090825 14:40	27.1	27.1	27.8	54	17.0	2	8	22	0.0	1010.6	656	0.000	5.4
20090825 14:45	27.4	27.4	28.0	52	16.7	5	10	292	0.0	1010.7	721	0.000	5.5
20090825 14:50	27.5	27.5	28.1	53	17.1	3	8	292	0.0	1010.6	639	0.000	5.1
20090825 14:55	27.4	27.4	28.0	52	16.7	5	11	315	0.0	1010.7	696	0.000	5.2
20090825 15:00	27.6	27.6	28.0	51	16.5	5	11	338	0.0	1010.7	694	0.457	5.2
20090825 15:05	27.6	27.6	28.4	54	17.4	5	10	292	0.0	1010.7	678	0.000	5.0
20090825 15:10	27.7	27.7	28.3	53	17.2	6	11	315	0.0	1010.7	668	0.000	4.8
20090825 15:15	27.9	27.9	28.6	52	17.2	3	8	292	0.0	1010.6	661	0.000	4.7
20090825 15:20	28.0	28.0	28.4	50	16.6	3	10	292	0.0	1010.7	655	0.000	4.6
20090825 15:25	27.6	27.6	28.0	51	16.5	5	11	22	0.0	1010.6	648	0.000	4.5
20090825 15:30	27.3	27.3	28.0	53	16.9	5	10	45	0.0	1010.6	632	0.000	4.3
20090825 15:35	27.6	27.6	28.3	53	17.2	5	11	292	0.0	1010.6	627	0.000	4.2
20090825 15:40	27.6	27.6	28.2	53	17.1	2	6	22	0.0	1010.6	616	0.000	4.1
20090825 15:45	27.6	27.6	28.3	53	17.2	2	5	22	0.0	1010.6	606	0.000	3.9
20090825 15:50	27.9	27.9	28.5	51	16.9	3	10	315	0.0	1010.6	597	0.000	3.8
20090825 15:55	28.1	28.1	28.5	50	16.6	5	10	292	0.0	1010.4	575	0.000	3.6
20090825 16:00	27.8	27.8	28.6	54	17.7	2	6	135	0.0	1010.4	568	0.432	3.5
20090825 16:05	27.8	27.8	28.4	52	17.1	3	6	22	0.0	1010.4	556	0.000	3.4
20090825 16:10	28.1	28.1	28.7	52	17.3	2	6	315	0.0	1010.4	548	0.000	3.2
20090825 16:15	28.3	28.3	28.9	51	17.2	3	10	315	0.0	1010.3	544	0.000	3.1
20090825 16:20	28.4	28.4	29.0	50	17.0	5	8	292	0.0	1010.2	533	0.000	3.0
20090825 16:25	28.6	28.6	29.2	50	17.2	2	6	292	0.0	1010.1	523	0.000	2.8
20090825 16:30	28.4	28.4	29.1	52	17.6	2	8	338	0.0	1010.1	509	0.000	2.8
20090825 16:35	28.6	28.6	29.0	49	16.8	2	6	315	0.0	1010.1	493	0.000	2.6
20090825 16:40	28.2	28.2	28.8	52	17.4	3	10	22	0.0	1010.1	485	0.000	2.5
20090825 16:45	28.1	28.1	28.9	53	17.6	2	8	292	0.0	1010.2	475	0.000	2.4
20090825 16:50	28.2	28.2	28.7	51	17.1	3	10	0	0.0	1010.2	454	0.000	2.2
20090825 16:55	27.9	27.9	28.5	51	16.9	3	10	45	0.0	1010.1	439	0.000	2.1
20090825 17:00	27.7	27.7	28.4	53	17.3	3	10	45	0.0	1010.1	399	0.356	1.9
20090825 17:05	27.6	27.6	28.3	53	17.2	2	8	22	0.0	1010.2	335	0.000	1.7
20090825 17:10	27.9	27.9	28.4	51	16.8	2	6	338	0.0	1010.1	292	0.000	1.5
20090825 17:15	28.1	28.1	28.6	51	17.0	2	8	45	0.0	1010.1	260	0.000	1.4
20090825 17:20	27.7	27.7	28.2	51	16.6	2	5	45	0.0	1010.0	239	0.000	1.3
20090825 17:25	27.2	27.2	27.7	51	16.2	0	3	45	0.0	1010.1	316	0.000	1.4
20090825 17:30	27.3	27.3	27.9	52	16.6	2	5	45	0.0	1010.1	404	0.000	1.4
20090825 17:35	27.4	27.4	27.9	52	16.6	3	8	68	0.0	1010.1	345	0.000	1.3
20090825 17:40	27.3	27.3	27.9	52	16.6	3	6	68	0.0	1010.1	319	0.000	1.3
20090825 17:45	27.3	27.3	27.8	52	16.5	3	8	45	0.0	1010.2	333	0.000	1.2
20090825 17:50	27.3	27.3	28.1	55	17.5	2	6	45	0.0	1010.2	322	0.000	1.1
20090825 17:55	27.3	27.3	27.9	53	16.8	3	8	45	0.0	1010.2	309	0.000	1.0
20090825 18:00	27.2	27.2	27.8	52	16.5	2	5	45	0.0	1010.2	270	0.229	0.9
20090825 18:05	27.3	27.3	28.0	53	16.9	2	8	45	0.0	1010.2	214	0.000	0.8
20090825 18:10	27.2	27.2	27.8	53	16.8	3	6	45	0.0	1010.1	244	0.000	0.7
20090825 18:15	27.2	27.2	27.8	53	16.7	0	2	45	0.0	1010.1	225	0.000	0.6
20090825 18:20	27.2	27.2	27.8	53	16.7	2	5	45	0.0	1010.1	113	0.000	0.6
20090825 18:25	26.9	26.9	27.6	54	16.8	2	5	45	0.0	1010.1	145	0.000	0.5
20090825 18:30	26.7	26.7	27.4	55	16.9	2	5	45	0.0	1010.1	100	0.000	0.3
20090825 18:35	26.5	26.5	27.3	56	17.0	0	3	45	0.0	1010.0	68	0.000	0.0
20090825 18:40	26.3	26.3	27.1	56	16.8	0	2	45	0.0	1010.2	55	0.000	0.0
20090825 18:45	26.1	26.1	26.9	56	16.6	0	2	45	0.0	1010.2	46	0.000	0.0
20090825 18:50	25.9	25.9	26.8	58	17.0	0	2	45	0.0	1010.1	47	0.000	0.0
20090825 18:55	25.9	25.9	26.7	58	17.0	0	0	-100000	0.0	1010.1	48	0.000	0.0
20090825 19:00	25.8	25.8	26.7	59	17.1	0	0	-100000	0.0	1010.1	44	0.076	0.0
20090825 19:05	25.7	25.7	26.6	60	17.3	0	0	-100000	0.0	1009.9	39	0.000	0.0
20090825 19:10	25.6	25.6	26.5	59	16.9	0	0	-100000	0.0	1010.0	35	0.000	0.0
20090825 19:15	25.4	25.4	26.3	60	17.0	0	0	-100000	0.0	1010.0	33	0.000	0.0
20090825 19:20	25.3	25.3	26.2	60	16.9	0	0	-100000	0.0	1010.1	31	0.000	0.0
20090825 19:25	25.1	25.1	26.1	61	17.0	0	0	-100000	0.0	1010.4	28	0.000	0.0
20090825 19:30	25.0	25.0	26.0	62	17.2	0	0	-100000	0.0	1010.5	24	0.000	0.0
20090825 19:35	24.9	24.9	25.9	63	17.3	0	0	-100000	0.0	1010.5	18	0.000	0.0
20090825 19:40	24.8	24.8	25.8	64	17.5	0	0	-100000	0.0	1010.4	14	0.000	0.0
20090825 19:45	24.6	24.6	25.6	64	17.3	0	0	-100000	0.0	1010.4	12	0.000	0.0
20090825 19:50	24.5	24.5	25.5	65	17.5	0	0	-100000	0.0	1010.6	8	0.000	0.0
20090825 19:55	24.4	24.4	25.4	65	17.4	0	0	-100000	0.0	1010.7	2	0.000	0.0
20090825 20:00	24.3	24.3	25.4	66	17.6	0	2	45	0.0	1010.7	0	0.025	0.0
20090825 20:05	24.3	24.3	25.3	67	17.7	0	0	-100000	0.0	1010.3	0	0.000	0.0
20090825 20:10	24.3	24.3	25.3	67	17.7	0	0	-100000	0.0	1010.5	0	0.000	0.0
20090825 20:15	24.2	24.2	25.2	68	17.9	0	0	-100000	0.0	1010.6	0	0.000	0.0
20090825 20:20	24.1	24.1	25.1	68	17.8	0	0	-100000	0.0	1010.6	0	0.000	0.0
20090825 20:25	24.0	24.0	25.0	69	18.0	0	6	45	0.0	1010.9	0	0.000	0.0
20090825 20:30	23.9	23.9	24.9	70	18.1	5	10	180	0.0	1010.9	0	0.000	0.0
20090825 20:35	23.8	23.8	23.8	70	18.0	5	11	180	0.0	1011.1	0	0.000	0.0
20090825 20:40	23.6	23.6	23.6	71	18.0	5	14	180	0.0	1011.1	0	0.000	0.0
20090825 20:45	23.3	23.3	23.3	72	18.0	2	8	180	0.0	1011.0	0	0.000	0.0
20090825 20:50	23.2	23.2	23.2	72	17.8	2	5	180	0.0	1011.1	0	0.000	0.0
20090825 20:55	22.8	22.8	22.8	74	17.9	0	3	180	0.0	1011.1	0	0.000	0.0
20090825 21:00	22.6	22.6	22.6	75	17.9	0	3	180	0.0	1011.0	0	0.025	0.0
20090825 21:05	22.3	22.3	22.3	75	17.7	0	0	-100000	0.0	1010.7	0	0.000	0.0
20090825 21:10	22.1	22.1	22.1	76	17.7	0	2	180	0.0	1010.7	0	0.000	0.0
20090825 21:15	22.0	22.0	22.0	76	17.6	0	0	-100000	0.0	1010.8	0	0.000	0.0
20090825 21:20	21.9	21.9	21.9	76	17.5	0	0	-100000	0.0	1011.1	0	0.000	0.0
20090825 21:25	21.8	21.8	21.8	77	17.6	3	10	180	0.0	1011.3	0	0.000	0.0
20090825 21:30	21.8	21.8	21.8	78	17.8	6	16	202	0.0	1011.5	0	0.000	0.0
20090825 21:35	21.6	21.6	21.6	79	17.8	10	16	202	0.0	1011.7	0	0.000	0.0
20090825 21:40	21.4	21.4	21.4	80	17.8	11	19	202	0.0	1011.7	0	0.000	0.0
20090825 21:45	21.2	21.2	21.2	81	17.8	8	16	202	0.0	1011.7	0	0.000	0.0
20090825 21:50	21.0	21.0	21.0	82	17.8	6	11	202	0.0	1011.7	0	0.000	0.0
20090825 21:55	20.9	20.9	20.9	82	17.7	6	11	202	0.0	1011.8	0	0.000	0.0
20090825 22:00	20.8	20.8	20.8	81	17.4	11	19	225	0.0	1012.0	0	0.025	0.0
20090825 22:05	20.7	20.7	20.7	82	17.5	10	19	202	0.0	1011.9	0	0.000	0.0
20090825 22:10	20.7	20.7	20.7	82	17.5	8	18	202	0.0	1012.0	0	0.000	0.0
20090825 22:15	20.5	20.5	20.5	83	17.5	6	16	202	0.0	1011.9	0	0.000	0.0
20090825 22:20	20.3	20.3	20.3	82	17.2	6	14	202	0.0	1012.0	0	0.000	0.0
20090825 22:25	20.1	20.1	20.1	83	17.1	6	13	225	0.0	1012.2	0	0.000	0.0
20090825 22:30	20.0	20.0	20.0	83	17.0	6	11	202	0.0	1012.2	0	0.000	0.0
20090825 22:35	19.9	19.9	19.9	83	17.0	5	10	248	0.0	1012.3	0	0.000	0.0
20090825 22:40	19.9	19.9	19.9	83	16.9	6	14	202	0.0	1012.4	0	0.000	0.0
20090825 22:45	19.9	19.9	19.9	83	16.9	6	14	202	0.0	1012.5	0	0.000	0.0
20090825 22:50	19.9	19.9	19.9	82	16.8	8	13	202	0.0	1012.6	0	0.000	0.0
20090825 22:55	19.9	19.9	19.9	82	16.8	8	19	202	0.0	1012.7	0	0.000	0.0
20090825 23:00	20.2	20.2	20.2	82	17.0	13	29	225	0.0	1012.9	0	0.025	0.0
20090825 23:05	20.3	20.3	20.3	80	16.8	24	40	248	0.0	1013.0	0	0.000	0.0
20090825 23:10	19.8	19.8	19.8	80	16.2	26	45	248	0.0	1013.3	0	0.000	0.0
20090825 23:15	19.1	19.1	19.1	83	16.2	19	34	270	0.2	1013.5	0	0.000	0.0
20090825 23:20	18.6	18.6	18.6	85	16.0	18	37	270	0.0	1013.6	0	0.000	0.0
20090825 23:25	18.3	18.3	18.3	87	16.1	11	24	270	0.0	1013.8	0	0.000	0.0
20090825 23:30	18.1	18.1	18.1	88	16.0	16	27	270	0.0	1013.7	0	0.000	0.0
20090825 23:35	17.9	17.9	17.9	88	15.9	18	31	270	0.2	1013.7	0	0.000	0.0
20090825 23:40	17.8	17.8	17.8	89	15.9	16	24	270	0.0	1014.1	0	0.000	0.0
20090825 23:45	17.7	17.7	17.7	89	15.8	13	26	248	0.2	1014.4	0	0.000	0.0
20090825 23:50	17.6	17.6	17.6	90	15.9	10	19	225	0.4	1014.7	0	0.000	0.0
20090825 23:55	17.6	17.6	17.6	90	15.9	8	16	202	0.4	1014.8	0	0.000	0.0



Please note the license to use and transfer of this data:
http://creativecommons.org/licenses/by-nc-sa/3.0/deed.en

Bitte beachten sie die Lizenz zur Verwertung und Weitergabe der Daten:
http://creativecommons.org/licenses/by-nc-sa/3.0/deed.de

zurück zur Übersicht der Archivdaten (Monats und Tagesdaten)

Cookies helfen bei der Bereitstellung von Inhalten. Durch die Nutzung dieser Seiten erklärst du dich damit einverstanden, dass Cookies auf deinem Rechner gespeichert werden. Weitere Information